sensor_id;sensor_type;location;lat;lon;timestamp;temperature;humidity
35633;DHT22;21754;48.216;-1.628;2022-07-22T00:00:53;20.50;99.90
35633;DHT22;21754;48.216;-1.628;2022-07-22T00:03:19;20.40;99.90
35633;DHT22;21754;48.216;-1.628;2022-07-22T00:05:46;20.40;99.90
35633;DHT22;21754;48.216;-1.628;2022-07-22T00:08:11;20.50;99.90
35633;DHT22;21754;48.216;-1.628;2022-07-22T00:10:38;20.50;99.90
35633;DHT22;21754;48.216;-1.628;2022-07-22T00:13:04;20.40;99.90
35633;DHT22;21754;48.216;-1.628;2022-07-22T00:15:29;20.50;99.90
35633;DHT22;21754;48.216;-1.628;2022-07-22T00:17:55;20.50;99.90
35633;DHT22;21754;48.216;-1.628;2022-07-22T00:20:21;20.40;99.90
35633;DHT22;21754;48.216;-1.628;2022-07-22T00:22:47;20.40;99.90
35633;DHT22;21754;48.216;-1.628;2022-07-22T00:25:13;20.50;99.90
35633;DHT22;21754;48.216;-1.628;2022-07-22T00:27:39;20.30;99.90
35633;DHT22;21754;48.216;-1.628;2022-07-22T00:30:05;20.30;99.90
35633;DHT22;21754;48.216;-1.628;2022-07-22T00:32:30;20.30;99.90
35633;DHT22;21754;48.216;-1.628;2022-07-22T00:34:56;20.20;99.90
35633;DHT22;21754;48.216;-1.628;2022-07-22T00:37:22;20.30;99.90
35633;DHT22;21754;48.216;-1.628;2022-07-22T00:39:47;20.30;99.90
35633;DHT22;21754;48.216;-1.628;2022-07-22T00:42:14;20.40;99.90
35633;DHT22;21754;48.216;-1.628;2022-07-22T00:44:40;20.50;99.90
35633;DHT22;21754;48.216;-1.628;2022-07-22T00:47:06;20.50;99.90
35633;DHT22;21754;48.216;-1.628;2022-07-22T00:49:32;20.50;99.90
35633;DHT22;21754;48.216;-1.628;2022-07-22T00:51:57;20.50;99.90
35633;DHT22;21754;48.216;-1.628;2022-07-22T00:54:23;20.50;99.90
35633;DHT22;21754;48.216;-1.628;2022-07-22T00:56:49;20.50;99.90
35633;DHT22;21754;48.216;-1.628;2022-07-22T00:59:15;20.50;99.90
35633;DHT22;21754;48.216;-1.628;2022-07-22T01:01:41;20.50;99.90
35633;DHT22;21754;48.216;-1.628;2022-07-22T01:04:07;20.50;99.90
35633;DHT22;21754;48.216;-1.628;2022-07-22T01:06:33;20.40;99.90
35633;DHT22;21754;48.216;-1.628;2022-07-22T01:08:59;20.30;99.90
35633;DHT22;21754;48.216;-1.628;2022-07-22T01:11:25;20.30;99.90
35633;DHT22;21754;48.216;-1.628;2022-07-22T01:13:52;20.20;99.90
35633;DHT22;21754;48.216;-1.628;2022-07-22T01:16:18;20.20;99.90
35633;DHT22;21754;48.216;-1.628;2022-07-22T01:18:44;20.30;99.90
35633;DHT22;21754;48.216;-1.628;2022-07-22T01:21:10;20.20;99.90
35633;DHT22;21754;48.216;-1.628;2022-07-22T01:23:37;20.20;99.90
35633;DHT22;21754;48.216;-1.628;2022-07-22T01:26:04;20.20;99.90
35633;DHT22;21754;48.216;-1.628;2022-07-22T01:28:30;20.10;99.90
35633;DHT22;21754;48.216;-1.628;2022-07-22T01:30:56;20.10;99.90
35633;DHT22;21754;48.216;-1.628;2022-07-22T01:33:22;20.10;99.90
35633;DHT22;21754;48.216;-1.628;2022-07-22T01:35:49;20.00;99.90
35633;DHT22;21754;48.216;-1.628;2022-07-22T01:38:15;20.00;99.90
35633;DHT22;21754;48.216;-1.628;2022-07-22T01:40:42;20.10;99.90
35633;DHT22;21754;48.216;-1.628;2022-07-22T01:43:08;20.00;99.90
35633;DHT22;21754;48.216;-1.628;2022-07-22T01:45:35;20.10;99.90
35633;DHT22;21754;48.216;-1.628;2022-07-22T01:48:01;20.20;99.90
35633;DHT22;21754;48.216;-1.628;2022-07-22T01:50:27;20.10;99.90
35633;DHT22;21754;48.216;-1.628;2022-07-22T01:52:53;20.10;99.90
35633;DHT22;21754;48.216;-1.628;2022-07-22T01:55:18;20.10;99.90
35633;DHT22;21754;48.216;-1.628;2022-07-22T01:57:44;20.00;99.90
35633;DHT22;21754;48.216;-1.628;2022-07-22T02:00:11;20.00;99.90
35633;DHT22;21754;48.216;-1.628;2022-07-22T02:02:37;20.10;99.90
35633;DHT22;21754;48.216;-1.628;2022-07-22T02:05:05;20.10;99.90
35633;DHT22;21754;48.216;-1.628;2022-07-22T02:07:31;20.10;99.90
35633;DHT22;21754;48.216;-1.628;2022-07-22T02:09:57;20.20;99.90
35633;DHT22;21754;48.216;-1.628;2022-07-22T02:12:22;20.30;99.90
35633;DHT22;21754;48.216;-1.628;2022-07-22T02:14:48;20.10;99.90
35633;DHT22;21754;48.216;-1.628;2022-07-22T02:17:14;19.90;99.90
35633;DHT22;21754;48.216;-1.628;2022-07-22T02:19:40;20.00;99.90
35633;DHT22;21754;48.216;-1.628;2022-07-22T02:22:06;20.20;99.90
35633;DHT22;21754;48.216;-1.628;2022-07-22T02:24:32;20.20;99.90
35633;DHT22;21754;48.216;-1.628;2022-07-22T02:26:58;20.20;99.90
35633;DHT22;21754;48.216;-1.628;2022-07-22T02:29:24;20.20;99.90
35633;DHT22;21754;48.216;-1.628;2022-07-22T02:31:49;20.20;99.90
35633;DHT22;21754;48.216;-1.628;2022-07-22T02:34:16;20.20;99.90
35633;DHT22;21754;48.216;-1.628;2022-07-22T02:36:42;20.20;99.90
35633;DHT22;21754;48.216;-1.628;2022-07-22T02:39:07;20.30;99.90
35633;DHT22;21754;48.216;-1.628;2022-07-22T02:41:33;20.40;99.90
35633;DHT22;21754;48.216;-1.628;2022-07-22T02:43:59;20.50;99.90
35633;DHT22;21754;48.216;-1.628;2022-07-22T02:46:25;20.50;99.90
35633;DHT22;21754;48.216;-1.628;2022-07-22T02:48:51;20.40;99.90
35633;DHT22;21754;48.216;-1.628;2022-07-22T02:51:17;20.40;99.90
35633;DHT22;21754;48.216;-1.628;2022-07-22T02:53:43;20.40;99.90
35633;DHT22;21754;48.216;-1.628;2022-07-22T02:56:08;20.40;99.90
35633;DHT22;21754;48.216;-1.628;2022-07-22T02:58:34;20.50;99.90
35633;DHT22;21754;48.216;-1.628;2022-07-22T03:01:00;20.50;99.90
35633;DHT22;21754;48.216;-1.628;2022-07-22T03:03:26;20.60;99.90
35633;DHT22;21754;48.216;-1.628;2022-07-22T03:05:51;20.60;99.90
35633;DHT22;21754;48.216;-1.628;2022-07-22T03:08:17;20.60;99.90
35633;DHT22;21754;48.216;-1.628;2022-07-22T03:10:43;20.60;99.90
35633;DHT22;21754;48.216;-1.628;2022-07-22T03:13:08;20.70;99.90
35633;DHT22;21754;48.216;-1.628;2022-07-22T03:15:34;20.70;99.90
35633;DHT22;21754;48.216;-1.628;2022-07-22T03:18:00;20.80;99.90
35633;DHT22;21754;48.216;-1.628;2022-07-22T03:20:26;20.80;99.90
35633;DHT22;21754;48.216;-1.628;2022-07-22T03:22:52;20.80;99.90
35633;DHT22;21754;48.216;-1.628;2022-07-22T03:25:17;20.80;99.90
35633;DHT22;21754;48.216;-1.628;2022-07-22T03:27:43;20.80;99.90
35633;DHT22;21754;48.216;-1.628;2022-07-22T03:30:09;20.90;99.90
35633;DHT22;21754;48.216;-1.628;2022-07-22T03:32:34;20.90;99.90
35633;DHT22;21754;48.216;-1.628;2022-07-22T03:35:00;20.90;99.90
35633;DHT22;21754;48.216;-1.628;2022-07-22T03:37:26;20.80;99.90
35633;DHT22;21754;48.216;-1.628;2022-07-22T03:39:51;20.80;99.90
35633;DHT22;21754;48.216;-1.628;2022-07-22T03:42:17;20.80;99.90
35633;DHT22;21754;48.216;-1.628;2022-07-22T03:44:43;20.90;99.90
35633;DHT22;21754;48.216;-1.628;2022-07-22T03:47:08;20.90;99.90
35633;DHT22;21754;48.216;-1.628;2022-07-22T03:49:34;20.80;99.90
35633;DHT22;21754;48.216;-1.628;2022-07-22T03:52:00;20.80;99.90
35633;DHT22;21754;48.216;-1.628;2022-07-22T03:54:25;20.70;99.90
35633;DHT22;21754;48.216;-1.628;2022-07-22T03:56:51;20.70;99.90
35633;DHT22;21754;48.216;-1.628;2022-07-22T03:59:17;20.80;99.90
35633;DHT22;21754;48.216;-1.628;2022-07-22T04:01:42;20.80;99.90
35633;DHT22;21754;48.216;-1.628;2022-07-22T04:04:08;20.80;99.90
35633;DHT22;21754;48.216;-1.628;2022-07-22T04:06:34;20.80;99.90
35633;DHT22;21754;48.216;-1.628;2022-07-22T04:09:00;20.80;99.90
35633;DHT22;21754;48.216;-1.628;2022-07-22T04:11:26;20.80;99.90
35633;DHT22;21754;48.216;-1.628;2022-07-22T04:13:52;20.80;99.90
35633;DHT22;21754;48.216;-1.628;2022-07-22T04:16:17;20.80;99.90
35633;DHT22;21754;48.216;-1.628;2022-07-22T04:18:43;20.70;99.90
35633;DHT22;21754;48.216;-1.628;2022-07-22T04:21:09;20.70;99.90
35633;DHT22;21754;48.216;-1.628;2022-07-22T04:23:34;20.70;99.90
35633;DHT22;21754;48.216;-1.628;2022-07-22T04:26:00;20.80;99.90
35633;DHT22;21754;48.216;-1.628;2022-07-22T04:28:25;20.70;99.90
35633;DHT22;21754;48.216;-1.628;2022-07-22T04:30:51;20.70;99.90
35633;DHT22;21754;48.216;-1.628;2022-07-22T04:33:17;20.80;99.90
35633;DHT22;21754;48.216;-1.628;2022-07-22T04:35:42;20.80;99.90
35633;DHT22;21754;48.216;-1.628;2022-07-22T04:38:09;20.90;99.90
35633;DHT22;21754;48.216;-1.628;2022-07-22T04:40:34;20.90;99.90
35633;DHT22;21754;48.216;-1.628;2022-07-22T04:43:00;20.80;99.90
35633;DHT22;21754;48.216;-1.628;2022-07-22T04:45:26;20.90;99.90
35633;DHT22;21754;48.216;-1.628;2022-07-22T04:47:52;20.80;99.90
35633;DHT22;21754;48.216;-1.628;2022-07-22T04:50:17;20.80;99.90
35633;DHT22;21754;48.216;-1.628;2022-07-22T04:52:43;20.80;99.90
35633;DHT22;21754;48.216;-1.628;2022-07-22T04:55:09;20.80;99.90
35633;DHT22;21754;48.216;-1.628;2022-07-22T04:57:34;20.80;99.90
35633;DHT22;21754;48.216;-1.628;2022-07-22T05:00:00;20.80;99.90
35633;DHT22;21754;48.216;-1.628;2022-07-22T05:02:26;20.80;99.90
35633;DHT22;21754;48.216;-1.628;2022-07-22T05:04:52;20.80;99.90
35633;DHT22;21754;48.216;-1.628;2022-07-22T05:07:17;20.80;99.90
35633;DHT22;21754;48.216;-1.628;2022-07-22T05:09:43;20.80;99.90
35633;DHT22;21754;48.216;-1.628;2022-07-22T05:12:09;20.80;99.90
35633;DHT22;21754;48.216;-1.628;2022-07-22T05:14:35;20.90;99.90
35633;DHT22;21754;48.216;-1.628;2022-07-22T05:17:00;20.80;99.90
35633;DHT22;21754;48.216;-1.628;2022-07-22T05:19:26;20.80;99.90
35633;DHT22;21754;48.216;-1.628;2022-07-22T05:21:51;20.90;99.90
35633;DHT22;21754;48.216;-1.628;2022-07-22T05:24:17;20.90;99.90
35633;DHT22;21754;48.216;-1.628;2022-07-22T05:26:43;20.80;99.90
35633;DHT22;21754;48.216;-1.628;2022-07-22T05:29:08;20.80;99.90
35633;DHT22;21754;48.216;-1.628;2022-07-22T05:31:34;20.90;99.90
35633;DHT22;21754;48.216;-1.628;2022-07-22T05:33:59;20.90;99.90
35633;DHT22;21754;48.216;-1.628;2022-07-22T05:36:25;20.90;99.90
35633;DHT22;21754;48.216;-1.628;2022-07-22T05:38:51;20.90;99.90
35633;DHT22;21754;48.216;-1.628;2022-07-22T05:41:17;21.00;99.90
35633;DHT22;21754;48.216;-1.628;2022-07-22T05:43:42;21.00;99.90
35633;DHT22;21754;48.216;-1.628;2022-07-22T05:46:08;21.10;99.90
35633;DHT22;21754;48.216;-1.628;2022-07-22T05:48:34;21.20;99.90
35633;DHT22;21754;48.216;-1.628;2022-07-22T05:50:59;21.30;99.90
35633;DHT22;21754;48.216;-1.628;2022-07-22T05:53:25;21.30;99.90
35633;DHT22;21754;48.216;-1.628;2022-07-22T05:55:51;21.30;99.90
35633;DHT22;21754;48.216;-1.628;2022-07-22T05:58:17;21.40;99.90
35633;DHT22;21754;48.216;-1.628;2022-07-22T06:00:42;21.50;99.90
35633;DHT22;21754;48.216;-1.628;2022-07-22T06:03:08;21.50;99.90
35633;DHT22;21754;48.216;-1.628;2022-07-22T06:05:34;21.50;99.90
35633;DHT22;21754;48.216;-1.628;2022-07-22T06:08:01;21.50;99.90
35633;DHT22;21754;48.216;-1.628;2022-07-22T06:10:27;21.50;99.90
35633;DHT22;21754;48.216;-1.628;2022-07-22T06:12:52;21.50;99.90
35633;DHT22;21754;48.216;-1.628;2022-07-22T06:15:18;21.60;99.90
35633;DHT22;21754;48.216;-1.628;2022-07-22T06:17:44;21.70;99.90
35633;DHT22;21754;48.216;-1.628;2022-07-22T06:20:10;21.70;99.90
35633;DHT22;21754;48.216;-1.628;2022-07-22T06:22:35;21.70;99.90
35633;DHT22;21754;48.216;-1.628;2022-07-22T06:25:01;21.80;99.90
35633;DHT22;21754;48.216;-1.628;2022-07-22T06:27:26;21.70;99.90
35633;DHT22;21754;48.216;-1.628;2022-07-22T06:29:52;21.80;99.90
35633;DHT22;21754;48.216;-1.628;2022-07-22T06:32:18;21.90;99.90
35633;DHT22;21754;48.216;-1.628;2022-07-22T06:34:44;21.90;99.90
35633;DHT22;21754;48.216;-1.628;2022-07-22T06:37:09;21.90;99.90
35633;DHT22;21754;48.216;-1.628;2022-07-22T06:39:35;21.90;99.90
35633;DHT22;21754;48.216;-1.628;2022-07-22T06:42:01;22.00;99.90
35633;DHT22;21754;48.216;-1.628;2022-07-22T06:44:26;22.20;99.90
35633;DHT22;21754;48.216;-1.628;2022-07-22T06:46:52;22.30;99.90
35633;DHT22;21754;48.216;-1.628;2022-07-22T06:49:18;22.30;99.90
35633;DHT22;21754;48.216;-1.628;2022-07-22T06:51:43;22.30;99.90
35633;DHT22;21754;48.216;-1.628;2022-07-22T06:54:09;22.30;99.90
35633;DHT22;21754;48.216;-1.628;2022-07-22T06:56:35;22.30;99.90
35633;DHT22;21754;48.216;-1.628;2022-07-22T06:59:00;22.40;99.90
35633;DHT22;21754;48.216;-1.628;2022-07-22T07:01:26;22.40;99.90
35633;DHT22;21754;48.216;-1.628;2022-07-22T07:03:52;22.40;99.90
35633;DHT22;21754;48.216;-1.628;2022-07-22T07:11:09;22.60;99.90
35633;DHT22;21754;48.216;-1.628;2022-07-22T07:13:35;22.90;99.90
35633;DHT22;21754;48.216;-1.628;2022-07-22T07:16:00;23.00;99.90
35633;DHT22;21754;48.216;-1.628;2022-07-22T07:18:26;22.90;99.90
35633;DHT22;21754;48.216;-1.628;2022-07-22T07:20:53;23.00;99.90
35633;DHT22;21754;48.216;-1.628;2022-07-22T07:23:19;23.00;99.90
35633;DHT22;21754;48.216;-1.628;2022-07-22T07:25:45;22.90;99.90
35633;DHT22;21754;48.216;-1.628;2022-07-22T07:28:10;22.90;99.90
35633;DHT22;21754;48.216;-1.628;2022-07-22T07:30:36;22.80;99.90
35633;DHT22;21754;48.216;-1.628;2022-07-22T07:33:01;22.90;99.90
35633;DHT22;21754;48.216;-1.628;2022-07-22T07:35:28;23.00;99.90
35633;DHT22;21754;48.216;-1.628;2022-07-22T07:37:53;23.10;99.90
35633;DHT22;21754;48.216;-1.628;2022-07-22T07:40:19;23.10;99.90
35633;DHT22;21754;48.216;-1.628;2022-07-22T07:42:45;23.00;99.90
35633;DHT22;21754;48.216;-1.628;2022-07-22T07:45:11;22.90;99.90
35633;DHT22;21754;48.216;-1.628;2022-07-22T07:47:37;22.80;99.90
35633;DHT22;21754;48.216;-1.628;2022-07-22T07:50:06;22.60;99.90
35633;DHT22;21754;48.216;-1.628;2022-07-22T07:52:40;22.40;99.90
35633;DHT22;21754;48.216;-1.628;2022-07-22T07:55:07;22.30;99.90
35633;DHT22;21754;48.216;-1.628;2022-07-22T07:57:33;22.40;99.90
35633;DHT22;21754;48.216;-1.628;2022-07-22T07:59:59;22.60;99.90
35633;DHT22;21754;48.216;-1.628;2022-07-22T08:02:25;22.70;99.90
35633;DHT22;21754;48.216;-1.628;2022-07-22T08:04:50;22.70;99.90
35633;DHT22;21754;48.216;-1.628;2022-07-22T08:07:16;22.80;99.90
35633;DHT22;21754;48.216;-1.628;2022-07-22T08:09:42;22.60;99.90
35633;DHT22;21754;48.216;-1.628;2022-07-22T08:12:07;22.80;99.90
35633;DHT22;21754;48.216;-1.628;2022-07-22T08:14:33;22.70;99.90
35633;DHT22;21754;48.216;-1.628;2022-07-22T08:16:59;22.80;99.90
35633;DHT22;21754;48.216;-1.628;2022-07-22T08:19:24;22.90;99.90
35633;DHT22;21754;48.216;-1.628;2022-07-22T08:21:50;22.80;99.90
35633;DHT22;21754;48.216;-1.628;2022-07-22T08:24:16;23.00;99.90
35633;DHT22;21754;48.216;-1.628;2022-07-22T08:26:42;23.10;99.90
35633;DHT22;21754;48.216;-1.628;2022-07-22T08:29:07;23.30;99.90
35633;DHT22;21754;48.216;-1.628;2022-07-22T08:31:35;23.30;99.90
35633;DHT22;21754;48.216;-1.628;2022-07-22T08:34:03;23.30;99.90
35633;DHT22;21754;48.216;-1.628;2022-07-22T08:36:29;23.20;99.90
35633;DHT22;21754;48.216;-1.628;2022-07-22T08:38:55;23.10;99.90
35633;DHT22;21754;48.216;-1.628;2022-07-22T08:41:23;23.20;99.90
35633;DHT22;21754;48.216;-1.628;2022-07-22T08:43:50;23.10;99.90
35633;DHT22;21754;48.216;-1.628;2022-07-22T08:46:16;23.20;99.90
35633;DHT22;21754;48.216;-1.628;2022-07-22T08:48:42;23.10;99.90
35633;DHT22;21754;48.216;-1.628;2022-07-22T08:51:08;23.10;99.90
35633;DHT22;21754;48.216;-1.628;2022-07-22T08:53:34;23.20;99.90
35633;DHT22;21754;48.216;-1.628;2022-07-22T08:56:00;23.30;99.90
35633;DHT22;21754;48.216;-1.628;2022-07-22T08:58:26;23.30;99.90
35633;DHT22;21754;48.216;-1.628;2022-07-22T09:01:09;23.30;99.90
35633;DHT22;21754;48.216;-1.628;2022-07-22T09:06:10;23.30;99.90
35633;DHT22;21754;48.216;-1.628;2022-07-22T09:08:54;23.40;99.90
35633;DHT22;21754;48.216;-1.628;2022-07-22T09:11:22;23.50;99.90
35633;DHT22;21754;48.216;-1.628;2022-07-22T09:13:48;23.40;99.90
35633;DHT22;21754;48.216;-1.628;2022-07-22T09:16:14;23.20;99.90
35633;DHT22;21754;48.216;-1.628;2022-07-22T09:18:51;23.20;99.90
35633;DHT22;21754;48.216;-1.628;2022-07-22T09:21:17;23.10;99.90
35633;DHT22;21754;48.216;-1.628;2022-07-22T09:23:43;23.00;99.90
35633;DHT22;21754;48.216;-1.628;2022-07-22T09:26:38;22.90;99.90
35633;DHT22;21754;48.216;-1.628;2022-07-22T09:29:07;23.00;99.90
35633;DHT22;21754;48.216;-1.628;2022-07-22T09:31:36;23.00;99.90
35633;DHT22;21754;48.216;-1.628;2022-07-22T09:34:03;23.10;99.90
35633;DHT22;21754;48.216;-1.628;2022-07-22T09:36:30;23.00;99.90
35633;DHT22;21754;48.216;-1.628;2022-07-22T09:38:56;22.80;99.90
35633;DHT22;21754;48.216;-1.628;2022-07-22T09:41:21;22.70;99.90
35633;DHT22;21754;48.216;-1.628;2022-07-22T09:43:47;22.80;99.90
35633;DHT22;21754;48.216;-1.628;2022-07-22T09:46:13;22.80;99.90
35633;DHT22;21754;48.216;-1.628;2022-07-22T09:48:40;22.80;99.90
35633;DHT22;21754;48.216;-1.628;2022-07-22T09:51:06;22.80;99.90
35633;DHT22;21754;48.216;-1.628;2022-07-22T09:53:33;22.80;99.90
35633;DHT22;21754;48.216;-1.628;2022-07-22T09:56:00;22.90;99.90
35633;DHT22;21754;48.216;-1.628;2022-07-22T09:58:26;22.80;99.90
35633;DHT22;21754;48.216;-1.628;2022-07-22T10:00:54;22.80;99.90
35633;DHT22;21754;48.216;-1.628;2022-07-22T10:03:28;22.80;99.90
35633;DHT22;21754;48.216;-1.628;2022-07-22T10:05:55;22.80;99.90
35633;DHT22;21754;48.216;-1.628;2022-07-22T10:08:21;22.70;99.90
35633;DHT22;21754;48.216;-1.628;2022-07-22T10:10:48;22.60;99.90
35633;DHT22;21754;48.216;-1.628;2022-07-22T10:13:14;22.60;99.90
35633;DHT22;21754;48.216;-1.628;2022-07-22T10:15:39;22.70;99.90
35633;DHT22;21754;48.216;-1.628;2022-07-22T10:18:08;22.70;99.90
35633;DHT22;21754;48.216;-1.628;2022-07-22T10:20:35;22.90;99.90
35633;DHT22;21754;48.216;-1.628;2022-07-22T10:23:06;22.90;99.90
35633;DHT22;21754;48.216;-1.628;2022-07-22T10:25:48;22.90;99.90
35633;DHT22;21754;48.216;-1.628;2022-07-22T10:28:41;22.90;99.90
35633;DHT22;21754;48.216;-1.628;2022-07-22T10:31:19;23.00;99.90
35633;DHT22;21754;48.216;-1.628;2022-07-22T10:33:49;23.00;99.90
35633;DHT22;21754;48.216;-1.628;2022-07-22T10:36:33;23.00;99.90
35633;DHT22;21754;48.216;-1.628;2022-07-22T10:39:24;22.80;99.90
35633;DHT22;21754;48.216;-1.628;2022-07-22T10:41:52;22.80;99.90
35633;DHT22;21754;48.216;-1.628;2022-07-22T10:44:46;22.90;99.90
35633;DHT22;21754;48.216;-1.628;2022-07-22T10:47:12;22.70;99.90
35633;DHT22;21754;48.216;-1.628;2022-07-22T10:49:38;22.60;99.90
35633;DHT22;21754;48.216;-1.628;2022-07-22T10:54:33;22.70;99.90
35633;DHT22;21754;48.216;-1.628;2022-07-22T10:57:02;22.50;99.90
35633;DHT22;21754;48.216;-1.628;2022-07-22T10:59:28;22.70;99.90
35633;DHT22;21754;48.216;-1.628;2022-07-22T11:01:53;22.90;99.90
35633;DHT22;21754;48.216;-1.628;2022-07-22T11:04:25;22.90;99.90
35633;DHT22;21754;48.216;-1.628;2022-07-22T11:06:53;22.80;99.90
35633;DHT22;21754;48.216;-1.628;2022-07-22T11:09:21;22.80;99.90
35633;DHT22;21754;48.216;-1.628;2022-07-22T11:11:48;22.50;99.90
35633;DHT22;21754;48.216;-1.628;2022-07-22T11:14:16;22.60;99.90
35633;DHT22;21754;48.216;-1.628;2022-07-22T11:16:43;22.70;99.90
35633;DHT22;21754;48.216;-1.628;2022-07-22T11:19:09;22.80;99.90
35633;DHT22;21754;48.216;-1.628;2022-07-22T11:21:35;23.00;99.90
35633;DHT22;21754;48.216;-1.628;2022-07-22T11:24:04;22.90;99.90
35633;DHT22;21754;48.216;-1.628;2022-07-22T11:29:02;23.00;99.90
35633;DHT22;21754;48.216;-1.628;2022-07-22T11:31:28;22.90;99.90
35633;DHT22;21754;48.216;-1.628;2022-07-22T11:34:08;22.80;99.90
35633;DHT22;21754;48.216;-1.628;2022-07-22T11:36:35;22.80;99.90
35633;DHT22;21754;48.216;-1.628;2022-07-22T11:39:01;22.80;99.90
35633;DHT22;21754;48.216;-1.628;2022-07-22T11:41:29;22.90;99.90
35633;DHT22;21754;48.216;-1.628;2022-07-22T11:43:56;23.00;99.90
35633;DHT22;21754;48.216;-1.628;2022-07-22T11:46:22;22.90;99.90
35633;DHT22;21754;48.216;-1.628;2022-07-22T11:48:51;23.00;99.90
35633;DHT22;21754;48.216;-1.628;2022-07-22T11:51:18;23.20;99.90
35633;DHT22;21754;48.216;-1.628;2022-07-22T11:53:43;23.40;99.90
35633;DHT22;21754;48.216;-1.628;2022-07-22T11:56:10;23.40;99.90
35633;DHT22;21754;48.216;-1.628;2022-07-22T11:58:47;23.20;99.90
35633;DHT22;21754;48.216;-1.628;2022-07-22T12:01:17;22.70;99.90
35633;DHT22;21754;48.216;-1.628;2022-07-22T12:03:51;22.80;99.90
35633;DHT22;21754;48.216;-1.628;2022-07-22T12:06:18;23.00;99.90
35633;DHT22;21754;48.216;-1.628;2022-07-22T12:08:45;22.90;99.90
35633;DHT22;21754;48.216;-1.628;2022-07-22T12:11:13;23.00;99.90
35633;DHT22;21754;48.216;-1.628;2022-07-22T12:13:44;22.90;99.90
35633;DHT22;21754;48.216;-1.628;2022-07-22T12:16:40;23.00;99.90
35633;DHT22;21754;48.216;-1.628;2022-07-22T12:19:15;23.10;99.90
35633;DHT22;21754;48.216;-1.628;2022-07-22T12:24:28;23.40;99.90
35633;DHT22;21754;48.216;-1.628;2022-07-22T12:26:56;23.60;99.90
35633;DHT22;21754;48.216;-1.628;2022-07-22T12:29:25;23.80;99.90
35633;DHT22;21754;48.216;-1.628;2022-07-22T12:31:53;23.90;99.90
35633;DHT22;21754;48.216;-1.628;2022-07-22T12:37:25;24.00;99.90
35633;DHT22;21754;48.216;-1.628;2022-07-22T12:40:01;24.10;99.90
35633;DHT22;21754;48.216;-1.628;2022-07-22T12:42:32;24.10;99.90
35633;DHT22;21754;48.216;-1.628;2022-07-22T12:45:00;24.10;99.90
35633;DHT22;21754;48.216;-1.628;2022-07-22T12:55:36;23.70;99.90
35633;DHT22;21754;48.216;-1.628;2022-07-22T12:58:04;23.80;99.90
35633;DHT22;21754;48.216;-1.628;2022-07-22T13:00:30;23.90;99.90
35633;DHT22;21754;48.216;-1.628;2022-07-22T13:02:56;23.90;99.90
35633;DHT22;21754;48.216;-1.628;2022-07-22T13:05:23;23.90;99.90
35633;DHT22;21754;48.216;-1.628;2022-07-22T13:07:49;23.60;99.90
35633;DHT22;21754;48.216;-1.628;2022-07-22T13:10:16;23.40;99.90
35633;DHT22;21754;48.216;-1.628;2022-07-22T13:12:42;23.40;99.90
35633;DHT22;21754;48.216;-1.628;2022-07-22T13:15:09;23.50;99.90
35633;DHT22;21754;48.216;-1.628;2022-07-22T13:17:35;23.60;99.90
35633;DHT22;21754;48.216;-1.628;2022-07-22T13:20:02;23.70;99.90
35633;DHT22;21754;48.216;-1.628;2022-07-22T13:22:28;23.50;99.90
35633;DHT22;21754;48.216;-1.628;2022-07-22T13:24:53;23.60;99.90
35633;DHT22;21754;48.216;-1.628;2022-07-22T13:27:19;23.50;99.90
35633;DHT22;21754;48.216;-1.628;2022-07-22T13:29:45;23.50;99.90
35633;DHT22;21754;48.216;-1.628;2022-07-22T13:32:10;23.60;99.90
35633;DHT22;21754;48.216;-1.628;2022-07-22T13:34:36;23.40;99.90
35633;DHT22;21754;48.216;-1.628;2022-07-22T13:37:02;23.60;99.90
35633;DHT22;21754;48.216;-1.628;2022-07-22T13:39:28;23.60;99.90
35633;DHT22;21754;48.216;-1.628;2022-07-22T13:41:53;23.60;99.90
35633;DHT22;21754;48.216;-1.628;2022-07-22T13:44:19;23.60;99.90
35633;DHT22;21754;48.216;-1.628;2022-07-22T13:46:45;23.60;99.90
35633;DHT22;21754;48.216;-1.628;2022-07-22T14:13:34;23.70;99.90
35633;DHT22;21754;48.216;-1.628;2022-07-22T14:16:00;23.70;99.90
35633;DHT22;21754;48.216;-1.628;2022-07-22T14:18:46;24.00;99.90
35633;DHT22;21754;48.216;-1.628;2022-07-22T14:45:33;24.20;99.90
35633;DHT22;21754;48.216;-1.628;2022-07-22T14:55:16;24.20;99.90
35633;DHT22;21754;48.216;-1.628;2022-07-22T14:57:42;24.60;99.90
35633;DHT22;21754;48.216;-1.628;2022-07-22T15:00:08;24.40;99.90
35633;DHT22;21754;48.216;-1.628;2022-07-22T15:02:34;24.30;99.90
35633;DHT22;21754;48.216;-1.628;2022-07-22T15:04:59;24.30;99.90
35633;DHT22;21754;48.216;-1.628;2022-07-22T15:07:25;24.50;99.90
35633;DHT22;21754;48.216;-1.628;2022-07-22T15:09:51;24.40;99.90
35633;DHT22;21754;48.216;-1.628;2022-07-22T15:12:16;24.30;99.90
35633;DHT22;21754;48.216;-1.628;2022-07-22T15:14:42;24.30;99.90
35633;DHT22;21754;48.216;-1.628;2022-07-22T15:17:08;24.20;99.90
35633;DHT22;21754;48.216;-1.628;2022-07-22T15:19:33;24.30;99.90
35633;DHT22;21754;48.216;-1.628;2022-07-22T15:21:59;24.40;99.90
35633;DHT22;21754;48.216;-1.628;2022-07-22T15:24:25;24.30;99.90
35633;DHT22;21754;48.216;-1.628;2022-07-22T15:26:51;24.00;99.90
35633;DHT22;21754;48.216;-1.628;2022-07-22T15:29:17;23.90;99.90
35633;DHT22;21754;48.216;-1.628;2022-07-22T15:31:43;24.10;99.90
35633;DHT22;21754;48.216;-1.628;2022-07-22T15:34:08;24.20;99.90
35633;DHT22;21754;48.216;-1.628;2022-07-22T15:36:34;24.00;99.90
35633;DHT22;21754;48.216;-1.628;2022-07-22T15:39:00;24.00;99.90
35633;DHT22;21754;48.216;-1.628;2022-07-22T15:41:25;24.20;99.90
35633;DHT22;21754;48.216;-1.628;2022-07-22T15:43:51;24.40;99.90
35633;DHT22;21754;48.216;-1.628;2022-07-22T15:46:17;24.20;99.90
35633;DHT22;21754;48.216;-1.628;2022-07-22T15:48:42;23.80;99.90
35633;DHT22;21754;48.216;-1.628;2022-07-22T15:51:09;23.70;99.90
35633;DHT22;21754;48.216;-1.628;2022-07-22T15:53:35;23.70;99.90
35633;DHT22;21754;48.216;-1.628;2022-07-22T15:56:01;23.80;99.90
35633;DHT22;21754;48.216;-1.628;2022-07-22T15:58:27;23.80;99.90
35633;DHT22;21754;48.216;-1.628;2022-07-22T16:08:30;24.00;99.90
35633;DHT22;21754;48.216;-1.628;2022-07-22T16:10:56;24.10;99.90
35633;DHT22;21754;48.216;-1.628;2022-07-22T16:13:22;24.10;99.90
35633;DHT22;21754;48.216;-1.628;2022-07-22T16:15:48;23.90;99.90
35633;DHT22;21754;48.216;-1.628;2022-07-22T16:18:14;23.90;99.90
35633;DHT22;21754;48.216;-1.628;2022-07-22T16:20:40;23.80;99.90
35633;DHT22;21754;48.216;-1.628;2022-07-22T16:23:06;23.80;99.90
35633;DHT22;21754;48.216;-1.628;2022-07-22T16:25:32;23.90;99.90
35633;DHT22;21754;48.216;-1.628;2022-07-22T16:27:57;24.10;99.90
35633;DHT22;21754;48.216;-1.628;2022-07-22T16:30:23;23.60;99.90
35633;DHT22;21754;48.216;-1.628;2022-07-22T16:32:49;23.30;99.90
35633;DHT22;21754;48.216;-1.628;2022-07-22T16:35:14;23.10;99.90
35633;DHT22;21754;48.216;-1.628;2022-07-22T16:37:41;22.90;99.90
35633;DHT22;21754;48.216;-1.628;2022-07-22T16:40:08;22.90;99.90
35633;DHT22;21754;48.216;-1.628;2022-07-22T16:42:34;23.10;99.90